createdAt,value
2023-04-26T00:04:00.843Z,99915.59
2023-04-26T00:08:04.324Z,99915.13
2023-04-26T00:12:06.460Z,99915.53
2023-04-26T00:16:08.331Z,99918.06
2023-04-26T00:20:13.070Z,99919.50
2023-04-26T00:24:14.818Z,99923.91
2023-04-26T00:28:16.542Z,99916.75
2023-04-26T00:32:18.459Z,99920.50
2023-04-26T00:36:21.840Z,99920.72
2023-04-26T00:40:23.600Z,99924.69
2023-04-26T00:44:25.442Z,99926.75
2023-04-26T00:48:28.062Z,99928.84
2023-04-26T00:52:31.180Z,99923.81
2023-04-26T00:56:33.437Z,99923.38
2023-04-26T01:00:35.214Z,99929.88
2023-04-26T01:04:37.565Z,99933.00
2023-04-26T01:08:39.512Z,99941.38
2023-04-26T01:12:41.691Z,99937.38
2023-04-26T01:16:47.644Z,99929.41
2023-04-26T01:20:49.834Z,99933.41
2023-04-26T01:24:55.146Z,99931.25
2023-04-26T01:28:56.895Z,99926.22
2023-04-26T01:32:58.617Z,99916.38
2023-04-26T01:37:01.665Z,99920.97
2023-04-26T01:41:03.610Z,99918.44
2023-04-26T01:45:07.495Z,99920.53
2023-04-26T01:49:32.805Z,99920.31
2023-04-26T01:53:34.655Z,99916.72
2023-04-26T01:57:36.508Z,99923.44
2023-04-26T02:01:38.230Z,99917.75
2023-04-26T02:05:39.917Z,99918.75
2023-04-26T02:09:41.865Z,99924.44
2023-04-26T02:13:43.767Z,99924.81
2023-04-26T02:17:45.446Z,99920.63
2023-04-26T02:21:56.304Z,99934.63
2023-04-26T02:25:58.148Z,99931.25
2023-04-26T02:29:59.964Z,99930.00
2023-04-26T02:34:02.329Z,99936.50
2023-04-26T02:38:04.366Z,99933.09
2023-04-26T02:42:12.513Z,99933.28
2023-04-26T02:46:17.136Z,99928.06
2023-04-26T02:50:19.104Z,99922.81
2023-04-26T02:54:21.117Z,99923.00
2023-04-26T02:58:22.917Z,99923.19
2023-04-26T03:02:25.031Z,99919.03
2023-04-26T03:06:28.302Z,99922.75
2023-04-26T03:10:30.318Z,99926.72
2023-04-26T03:14:32.282Z,99923.56
2023-04-26T03:18:33.971Z,99919.16
2023-04-26T03:22:36.080Z,99915.13
2023-04-26T03:26:38.612Z,99920.78
2023-04-26T03:30:40.479Z,99917.63
2023-04-26T03:34:42.227Z,99918.03
2023-04-26T03:38:44.026Z,99919.44
2023-04-26T03:42:47.009Z,99923.41
2023-04-26T03:46:50.949Z,99917.72
2023-04-26T03:50:53.585Z,99922.50
2023-04-26T03:54:55.298Z,99917.47
2023-04-26T03:58:57.267Z,99923.94
2023-04-26T04:02:59.898Z,99915.78
2023-04-26T04:07:02.286Z,99911.56
2023-04-26T04:11:04.006Z,99918.69
2023-04-26T04:15:09.908Z,99910.53
2023-04-26T04:19:13.721Z,99919.53
2023-04-26T04:23:15.933Z,99925.19
2023-04-26T04:27:17.882Z,99930.81
2023-04-26T04:31:20.330Z,99921.81
2023-04-26T04:35:29.369Z,99925.56
2023-04-26T04:39:32.048Z,99929.78
2023-04-26T04:43:35.216Z,99933.56
2023-04-26T04:47:40.234Z,99939.50
2023-04-26T04:51:44.189Z,99943.31
2023-04-26T04:55:47.336Z,99950.88
2023-04-26T04:59:51.465Z,99945.69
2023-04-26T05:03:53.771Z,99948.84
2023-04-26T05:07:55.927Z,99948.06
2023-04-26T05:11:58.164Z,99958.16
2023-04-26T05:16:00.917Z,99960.09
2023-04-26T05:20:07.613Z,99965.56
2023-04-26T05:24:10.170Z,99971.50
2023-04-26T05:28:14.139Z,99972.59
2023-04-26T05:32:50.967Z,99972.88
2023-04-26T05:37:10.572Z,99982.31
2023-04-26T05:41:13.168Z,99978.34
2023-04-26T05:45:16.204Z,99979.63
2023-04-26T05:49:18.176Z,99986.81
2023-04-26T05:53:20.826Z,99979.94
2023-04-26T05:57:28.547Z,99989.88
2023-04-26T06:01:30.355Z,99993.94
2023-04-26T06:05:33.049Z,100006.38
2023-04-26T06:09:35.782Z,100002.84
2023-04-26T06:13:38.261Z,100005.41
2023-04-26T06:17:44.232Z,100007.56
2023-04-26T06:21:49.128Z,100013.47
2023-04-26T06:25:52.126Z,100019.81
2023-04-26T06:29:56.112Z,100013.75
2023-04-26T06:34:02.454Z,100021.50
2023-04-26T06:38:04.194Z,100024.66
2023-04-26T06:42:08.596Z,100029.25
2023-04-26T06:46:36.192Z,100028.41
2023-04-26T06:50:42.033Z,100027.34
2023-04-26T06:54:55.933Z,100022.84
2023-04-26T06:59:04.139Z,100013.47
2023-04-26T07:03:07.195Z,100013.47
2023-04-26T07:07:11.131Z,100011.16
2023-04-26T07:11:16.872Z,100020.81
2023-04-26T07:15:19.873Z,100010.31
2023-04-26T07:19:22.114Z,100012.44
2023-04-26T07:23:24.153Z,100013.06
2023-04-26T07:27:27.397Z,100008.81
2023-04-26T07:31:30.445Z,100013.94
2023-04-26T07:35:33.760Z,100011.84
2023-04-26T07:39:38.159Z,100007.13
2023-04-26T07:43:42.085Z,100003.69
2023-04-26T07:47:47.116Z,100006.81
2023-04-26T07:51:51.304Z,100006.59
2023-04-26T07:55:56.533Z,100009.34
2023-04-26T08:00:00.482Z,100013.69
2023-04-26T08:04:10.863Z,100019.28
2023-04-26T08:08:14.077Z,100012.81
2023-04-26T08:12:18.661Z,100019.50
2023-04-26T08:16:23.126Z,100012.53
2023-04-26T08:20:26.487Z,100020.44
2023-04-26T08:24:29.825Z,100018.66
2023-04-26T08:28:31.695Z,100026.56
2023-04-26T08:32:36.132Z,100018.94
2023-04-26T08:36:38.424Z,100023.84
2023-04-26T08:40:44.151Z,100019.06
2023-04-26T08:44:49.081Z,100017.38
2023-04-26T08:49:06.087Z,100017.34
2023-04-26T08:53:10.565Z,100009.00
2023-04-26T08:57:16.097Z,100000.50
2023-04-26T09:01:20.117Z,99999.31
2023-04-26T09:05:27.268Z,99994.31
2023-04-26T09:09:40.087Z,99997.19
2023-04-26T09:13:43.387Z,99994.28
2023-04-26T09:17:46.305Z,99987.28
2023-04-26T09:21:50.094Z,99986.69
2023-04-26T09:25:52.472Z,99997.66
2023-04-26T09:29:59.967Z,99998.72
2023-04-26T09:34:05.472Z,99993.75
2023-04-26T09:38:19.515Z,99987.78
2023-04-26T09:42:21.493Z,99986.63
2023-04-26T09:46:26.906Z,99983.59
2023-04-26T09:50:32.266Z,99985.41
2023-04-26T09:54:47.456Z,99975.25
2023-04-26T09:59:02.537Z,99980.63
2023-04-26T10:03:06.202Z,99983.53
2023-04-26T10:07:09.935Z,99980.94
2023-04-26T10:11:14.138Z,99974.78
2023-04-26T10:15:17.997Z,99974.81
2023-04-26T10:19:24.529Z,99973.09
2023-04-26T10:23:28.066Z,99979.59
2023-04-26T10:27:43.509Z,99976.81
2023-04-26T10:32:07.150Z,99965.75
2023-04-26T10:36:15.952Z,99979.00
2023-04-26T10:40:41.910Z,99963.03
2023-04-26T10:44:45.840Z,99963.06
2023-04-26T10:48:50.114Z,99961.00
2023-04-26T10:53:04.816Z,99958.31
2023-04-26T10:57:09.360Z,99947.47
2023-04-26T11:01:20.151Z,99953.03
2023-04-26T11:05:36.124Z,99945.78
2023-04-26T11:09:41.609Z,99935.72
2023-04-26T11:13:44.394Z,99938.59
2023-04-26T11:17:47.432Z,99930.03
2023-04-26T11:21:56.253Z,99925.78
2023-04-26T11:26:06.090Z,99915.00
2023-04-26T11:30:09.043Z,99922.19
2023-04-26T11:34:12.081Z,99916.00
2023-04-26T11:38:14.328Z,99907.25
2023-04-26T11:42:16.848Z,99914.00
2023-04-26T11:46:22.140Z,99910.56
2023-04-26T11:50:26.965Z,99894.47
2023-04-26T11:54:35.949Z,99895.00
2023-04-26T11:58:38.107Z,99895.28
2023-04-26T12:02:40.315Z,99893.03
2023-04-26T12:06:48.278Z,99891.91
2023-04-26T12:10:50.679Z,99888.31
2023-04-26T12:14:54.077Z,99890.94
2023-04-26T12:18:57.198Z,99887.63
2023-04-26T12:22:59.783Z,99886.53
2023-04-26T12:27:05.785Z,99884.53
2023-04-26T12:31:09.130Z,99875.44
2023-04-26T12:35:12.093Z,99880.63
2023-04-26T12:39:15.921Z,99878.91
2023-04-26T12:43:17.686Z,99871.91
2023-04-26T12:47:22.652Z,99876.72
2023-04-26T12:51:26.306Z,99878.75
2023-04-26T12:55:31.920Z,99876.56
2023-04-26T12:59:34.794Z,99866.53
2023-04-26T13:03:36.881Z,99871.50
2023-04-26T13:07:48.748Z,99875.72
2023-04-26T13:11:50.390Z,99875.75
2023-04-26T13:15:53.836Z,99867.00
2023-04-26T13:19:56.895Z,99862.66
2023-04-26T13:23:59.438Z,99870.72
2023-04-26T13:28:01.984Z,99864.81
2023-04-26T13:32:03.874Z,99879.72
2023-04-26T13:36:05.920Z,99867.28
2023-04-26T13:40:11.441Z,99864.97
2023-04-26T13:44:14.430Z,99851.56
2023-04-26T13:48:16.732Z,99862.75
2023-04-26T13:52:18.967Z,99861.44
2023-04-26T13:56:20.661Z,99848.31
2023-04-26T14:00:23.109Z,99863.53
2023-04-26T14:04:26.834Z,99849.28
2023-04-26T14:08:29.347Z,99849.00
2023-04-26T14:12:35.306Z,99860.47
2023-04-26T14:16:37.196Z,99851.09
2023-04-26T14:20:39.042Z,99858.25
2023-04-26T14:24:40.996Z,99848.06
2023-04-26T14:28:43.119Z,99854.72
2023-04-26T14:32:45.870Z,99847.50
2023-04-26T14:36:47.650Z,99851.91
2023-04-26T14:40:49.590Z,99845.66
2023-04-26T14:44:53.319Z,99846.53
2023-04-26T14:48:56.126Z,99847.63
2023-04-26T14:52:58.114Z,99844.25
2023-04-26T14:57:00.529Z,99832.41
2023-04-26T15:01:02.753Z,99824.69
2023-04-26T15:05:09.121Z,99826.16
2023-04-26T15:09:13.321Z,99815.00
2023-04-26T15:13:15.264Z,99820.84
2023-04-26T15:17:18.101Z,99800.25
2023-04-26T15:21:19.918Z,99812.00
2023-04-26T15:25:21.654Z,99805.38
2023-04-26T15:29:23.446Z,99808.66
2023-04-26T15:33:28.554Z,99796.25
2023-04-26T15:37:30.683Z,99792.63
2023-04-26T15:41:33.188Z,99792.63
2023-04-26T15:45:35.978Z,99792.09
2023-04-26T15:49:39.098Z,99786.78
2023-04-26T15:53:43.858Z,99799.00
2023-04-26T15:57:47.075Z,99788.47
2023-04-26T16:01:48.881Z,99791.25
2023-04-26T16:05:50.640Z,99787.38
2023-04-26T16:09:52.717Z,99804.78
2023-04-26T16:13:55.096Z,99789.00
2023-04-26T16:18:00.228Z,99785.66
2023-04-26T16:22:03.880Z,99780.41
2023-04-26T16:26:07.120Z,99782.09
2023-04-26T16:30:09.915Z,99783.25
2023-04-26T16:34:12.135Z,99787.88
2023-04-26T16:38:14.332Z,99784.56
2023-04-26T16:42:17.106Z,99778.19
2023-04-26T16:46:20.172Z,99785.66
2023-04-26T16:50:22.169Z,99780.91
2023-04-26T16:54:25.866Z,99772.53
2023-04-26T16:58:27.607Z,99779.91
2023-04-26T17:02:31.162Z,99781.75
2023-04-26T17:06:33.374Z,99780.25
2023-04-26T17:10:36.684Z,99782.63
2023-04-26T17:14:38.318Z,99782.00
2023-04-26T17:18:42.014Z,99786.38
2023-04-26T17:22:46.099Z,99792.22
2023-04-26T17:26:47.865Z,99795.00
2023-04-26T17:30:49.681Z,99792.91
2023-04-26T17:34:52.099Z,99798.31
2023-04-26T17:38:53.918Z,99794.50
2023-04-26T17:42:56.750Z,99794.84
2023-04-26T17:46:59.324Z,99794.88
2023-04-26T17:51:02.443Z,99803.16
2023-04-26T17:55:08.138Z,99803.13
2023-04-26T17:59:11.117Z,99817.16
2023-04-26T18:03:13.837Z,99815.09
2023-04-26T18:07:18.068Z,99815.50
2023-04-26T18:11:24.190Z,99817.25
2023-04-26T18:15:26.160Z,99820.66
2023-04-26T18:19:29.462Z,99817.66
2023-04-26T18:23:31.547Z,99814.94
2023-04-26T18:27:33.565Z,99820.44
2023-04-26T18:31:35.375Z,99827.06
2023-04-26T18:35:38.198Z,99830.31
2023-04-26T18:39:41.084Z,99838.22
2023-04-26T18:43:43.934Z,99836.84
2023-04-26T18:47:46.505Z,99833.03
2023-04-26T18:51:49.112Z,99841.63
2023-04-26T18:55:53.888Z,99840.56
2023-04-26T18:59:57.516Z,99845.31
2023-04-26T19:04:00.306Z,99854.47
2023-04-26T19:08:03.257Z,99853.69
2023-04-26T19:12:07.072Z,99861.97
2023-04-26T19:16:10.260Z,99860.34
2023-04-26T19:20:14.872Z,99874.16
2023-04-26T19:24:19.342Z,99872.00
2023-04-26T19:28:21.096Z,99877.53
2023-04-26T19:32:23.160Z,99884.16
2023-04-26T19:36:26.085Z,99879.13
2023-04-26T19:40:29.092Z,99883.47
2023-04-26T19:44:31.503Z,99890.88
2023-04-26T19:48:35.083Z,99885.59
2023-04-26T19:52:38.093Z,99890.09
2023-04-26T19:56:41.087Z,99887.34
2023-04-26T20:00:45.389Z,99895.81
2023-04-26T20:04:48.114Z,99893.03
2023-04-26T20:08:51.082Z,99888.28
2023-04-26T20:12:53.402Z,99892.69
2023-04-26T20:16:55.316Z,99895.97
2023-04-26T20:20:59.878Z,99888.28
2023-04-26T20:25:01.747Z,99888.84
2023-04-26T20:29:03.678Z,99895.09
2023-04-26T20:33:06.677Z,99891.00
2023-04-26T20:37:08.519Z,99893.56
2023-04-26T20:41:10.179Z,99893.19
2023-04-26T20:45:12.502Z,99893.66
2023-04-26T20:49:14.421Z,99892.66
2023-04-26T20:53:16.772Z,99895.25
2023-04-26T20:57:18.527Z,99895.09
2023-04-26T21:01:20.294Z,99880.41
2023-04-26T21:05:24.254Z,99891.88
2023-04-26T21:09:26.162Z,99898.88
2023-04-26T21:13:29.949Z,99905.28
2023-04-26T21:17:31.672Z,99906.16
2023-04-26T21:21:33.438Z,99900.53
2023-04-26T21:25:35.360Z,99897.84
2023-04-26T21:29:37.146Z,99902.09
2023-04-26T21:33:39.020Z,99900.41
2023-04-26T21:37:40.873Z,99898.97
2023-04-26T21:41:42.965Z,99906.19
2023-04-26T21:45:44.685Z,99912.13
2023-04-26T21:49:46.364Z,99911.94
2023-04-26T21:53:48.143Z,99914.50
2023-04-26T21:57:50.025Z,99908.84
2023-04-26T22:01:51.829Z,99904.44
2023-04-26T22:05:53.501Z,99904.06
2023-04-26T22:09:55.236Z,99904.50
2023-04-26T22:13:56.939Z,99899.47
2023-04-26T22:17:58.677Z,99902.19
2023-04-26T22:22:00.616Z,99911.69
2023-04-26T22:26:02.575Z,99917.63
2023-04-26T22:30:20.499Z,99910.69
2023-04-26T22:34:25.385Z,99920.16
2023-04-26T22:38:27.189Z,99916.81
2023-04-26T22:42:28.983Z,99926.31
2023-04-26T22:46:30.876Z,99928.19
2023-04-26T22:50:32.583Z,99935.38
2023-04-26T22:54:34.390Z,99943.34
2023-04-26T22:58:36.213Z,99928.16
2023-04-26T23:02:38.099Z,99933.16
2023-04-26T23:06:39.760Z,99922.97
2023-04-26T23:10:41.631Z,99933.63
2023-04-26T23:14:43.335Z,99935.66
2023-04-26T23:18:46.640Z,99944.22
2023-04-26T23:22:48.305Z,99941.78
2023-04-26T23:26:49.966Z,99938.53
2023-04-26T23:30:51.690Z,99933.84
2023-04-26T23:34:53.495Z,99934.41
2023-04-26T23:38:55.146Z,99922.06
2023-04-26T23:42:56.988Z,99935.72
2023-04-26T23:46:58.638Z,99939.19
2023-04-26T23:51:00.467Z,99927.56
2023-04-26T23:55:02.116Z,99927.09
2023-04-26T23:59:03.812Z,99922.91
